Terminal Aerodrome Forecast
Issued by NWS

Home | Current Version | Previous Version | Text Only | Print | Product List | Glossary On
Versions: 1 2 3 4 5 6 7 8 9 10 11 12 13 14
000
FTUS44 KSJT 241736
TAFSOA
TAF
KSOA 241736Z 2418/2518 16011KT P6SM VCSH BKN050 OVC120
     FM250000 13007KT P6SM BKN050
     FM250700 15010KT P6SM VCSH OVC020=

USA.gov is the U.S. government's official web portal to all federal, state and local government web resources and services.